createdAt,value
2023-05-09T00:01:41.676Z,14.67
2023-05-09T00:04:08.306Z,14.53
2023-05-09T00:06:35.135Z,14.71
2023-05-09T00:09:01.648Z,14.90
2023-05-09T00:11:28.230Z,14.84
2023-05-09T00:13:54.717Z,14.75
2023-05-09T00:16:24.122Z,14.95
2023-05-09T00:18:50.938Z,14.69
2023-05-09T00:21:17.546Z,14.62
2023-05-09T00:23:46.272Z,14.71
2023-05-09T00:26:12.823Z,14.50
2023-05-09T00:28:39.400Z,14.62
2023-05-09T00:31:06.137Z,14.46
2023-05-09T00:33:32.767Z,14.38
2023-05-09T00:35:59.373Z,14.26
2023-05-09T00:38:26.050Z,14.09
2023-05-09T00:40:52.580Z,14.14
2023-05-09T00:43:19.109Z,14.13
2023-05-09T00:45:48.332Z,14.01
2023-05-09T00:48:18.647Z,14.19
2023-05-09T00:50:48.163Z,14.16
2023-05-09T00:53:14.956Z,13.90
2023-05-09T00:55:41.673Z,13.95
2023-05-09T00:58:08.292Z,13.92
2023-05-09T01:00:34.881Z,13.94
2023-05-09T01:03:01.557Z,13.81
2023-05-09T01:05:51.053Z,14.01
2023-05-09T01:08:35.047Z,14.04
2023-05-09T01:11:10.792Z,13.78
2023-05-09T01:14:06.223Z,14.03
2023-05-09T01:16:50.031Z,14.21
2023-05-09T01:19:51.666Z,14.26
2023-05-09T01:22:24.045Z,14.05
2023-05-09T01:25:21.017Z,14.34
2023-05-09T01:28:00.816Z,14.25
2023-05-09T01:30:29.482Z,14.01
2023-05-09T01:33:00.815Z,13.95
2023-05-09T01:35:31.160Z,13.82
2023-05-09T01:37:59.438Z,13.84
2023-05-09T01:40:30.761Z,13.98
2023-05-09T01:43:01.966Z,13.65
2023-05-09T01:45:30.059Z,13.78
2023-05-09T01:47:58.677Z,13.61
2023-05-09T01:50:27.036Z,13.66
2023-05-09T01:52:57.105Z,13.87
2023-05-09T01:55:28.440Z,13.95
2023-05-09T01:57:56.715Z,13.97
2023-05-09T02:00:25.097Z,13.92
2023-05-09T02:02:56.205Z,13.87
2023-05-09T02:05:27.374Z,14.11
2023-05-09T02:07:57.371Z,14.04
2023-05-09T02:10:25.653Z,14.06
2023-05-09T02:12:56.305Z,14.01
2023-05-09T02:15:24.604Z,14.03
2023-05-09T02:17:55.581Z,13.86
2023-05-09T02:20:25.259Z,13.75
2023-05-09T02:22:55.386Z,13.98
2023-05-09T02:25:26.048Z,13.79
2023-05-09T02:27:58.004Z,13.67
2023-05-09T02:30:26.491Z,13.76
2023-05-09T02:33:08.598Z,13.85
2023-05-09T02:35:36.030Z,13.92
2023-05-09T02:38:03.336Z,13.75
2023-05-09T02:40:30.834Z,13.95
2023-05-09T02:42:57.541Z,13.70
2023-05-09T02:45:27.121Z,13.68
2023-05-09T02:47:56.695Z,13.71
2023-05-09T02:50:26.977Z,13.69
2023-05-09T02:52:56.624Z,13.56
2023-05-09T02:55:26.803Z,13.76
2023-05-09T02:58:09.223Z,13.86
2023-05-09T03:00:38.991Z,13.69
2023-05-09T03:03:05.727Z,13.77
2023-05-09T03:05:32.446Z,13.58
2023-05-09T03:07:58.990Z,13.84
2023-05-09T03:10:28.714Z,13.72
2023-05-09T03:12:58.056Z,13.77
2023-05-09T03:15:27.558Z,13.90
2023-05-09T03:17:56.588Z,13.89
2023-05-09T03:20:23.304Z,14.04
2023-05-09T03:22:49.866Z,13.89
2023-05-09T03:25:17.037Z,14.07
2023-05-09T03:27:43.749Z,13.97
2023-05-09T03:30:10.797Z,13.95
2023-05-09T03:32:37.476Z,13.99
2023-05-09T03:35:04.336Z,13.79
2023-05-09T03:37:30.853Z,13.91
2023-05-09T03:40:00.575Z,14.22
2023-05-09T03:42:29.918Z,13.87
2023-05-09T03:45:02.325Z,14.07
2023-05-09T03:47:28.872Z,13.95
2023-05-09T03:49:57.680Z,13.90
2023-05-09T03:52:24.195Z,14.03
2023-05-09T03:54:50.786Z,14.00
2023-05-09T03:57:17.427Z,14.04
2023-05-09T03:59:44.011Z,13.96
2023-05-09T04:02:11.089Z,13.71
2023-05-09T04:04:37.752Z,14.01
2023-05-09T04:07:04.343Z,13.75
2023-05-09T04:09:30.952Z,13.80
2023-05-09T04:12:00.702Z,14.08
2023-05-09T04:14:29.351Z,14.13
2023-05-09T04:16:55.927Z,14.02
2023-05-09T04:19:22.448Z,14.02
2023-05-09T04:21:48.951Z,13.68
2023-05-09T04:24:15.560Z,13.91
2023-05-09T04:26:42.129Z,13.92
2023-05-09T04:29:08.787Z,13.89
2023-05-09T04:31:36.049Z,13.77
2023-05-09T04:34:03.195Z,13.73
2023-05-09T04:36:33.852Z,13.72
2023-05-09T04:39:05.151Z,13.61
2023-05-09T04:41:31.914Z,13.76
2023-05-09T04:44:00.577Z,13.67
2023-05-09T04:46:27.152Z,13.70
2023-05-09T04:48:53.763Z,13.73
2023-05-09T04:51:20.483Z,13.55
2023-05-09T04:53:47.116Z,13.45
2023-05-09T04:56:13.610Z,13.43
2023-05-09T04:58:40.470Z,13.30
2023-05-09T05:01:06.967Z,13.49
2023-05-09T05:03:33.643Z,13.50
2023-05-09T05:06:02.508Z,13.55
2023-05-09T05:08:29.178Z,13.56
2023-05-09T05:10:55.852Z,13.54
2023-05-09T05:13:22.599Z,13.60
2023-05-09T05:15:49.799Z,13.79
2023-05-09T05:18:16.355Z,13.86
2023-05-09T05:20:43.068Z,13.89
2023-05-09T05:23:10.305Z,14.02
2023-05-09T05:25:36.944Z,14.29
2023-05-09T05:28:06.681Z,14.31
2023-05-09T05:30:34.924Z,14.12
2023-05-09T05:33:04.039Z,14.29
2023-05-09T05:35:30.614Z,14.25
2023-05-09T05:37:57.213Z,14.25
2023-05-09T05:40:23.743Z,14.29
2023-05-09T05:42:50.192Z,14.39
2023-05-09T05:45:17.111Z,14.31
2023-05-09T05:47:43.792Z,14.44
2023-05-09T05:50:12.003Z,14.58
2023-05-09T05:52:39.963Z,14.87
2023-05-09T05:55:06.690Z,14.84
2023-05-09T05:57:35.697Z,14.97
2023-05-09T06:00:04.807Z,15.02
2023-05-09T06:02:31.423Z,14.78
2023-05-09T06:04:58.020Z,14.84
2023-05-09T06:07:24.555Z,14.99
2023-05-09T06:09:51.051Z,15.03
2023-05-09T06:12:17.756Z,15.21
2023-05-09T06:14:44.251Z,15.12
2023-05-09T06:17:11.008Z,15.08
2023-05-09T06:19:37.720Z,15.25
2023-05-09T06:22:07.505Z,15.36
2023-05-09T06:24:36.871Z,15.44
2023-05-09T06:27:05.589Z,15.48
2023-05-09T06:29:32.160Z,15.32
2023-05-09T06:31:58.680Z,15.53
2023-05-09T06:34:25.218Z,15.47
2023-05-09T06:36:51.739Z,15.38
2023-05-09T06:39:18.269Z,15.58
2023-05-09T06:41:44.721Z,15.66
2023-05-09T06:44:11.237Z,15.82
2023-05-09T06:46:37.859Z,15.96
2023-05-09T06:49:07.490Z,16.07
2023-05-09T06:51:37.179Z,16.17
2023-05-09T06:54:06.821Z,16.31
2023-05-09T06:56:36.596Z,16.45
2023-05-09T06:59:05.420Z,16.52
2023-05-09T07:01:32.016Z,16.54
2023-05-09T07:03:59.633Z,16.57
2023-05-09T07:06:26.274Z,16.30
2023-05-09T07:08:52.748Z,16.37
2023-05-09T07:11:21.385Z,16.18
2023-05-09T07:13:47.954Z,16.11
2023-05-09T07:16:14.563Z,16.40
2023-05-09T07:18:41.085Z,16.44
2023-05-09T07:21:07.728Z,16.45
2023-05-09T07:23:37.311Z,16.34
2023-05-09T07:26:06.817Z,16.29
2023-05-09T07:28:34.529Z,16.40
2023-05-09T07:31:00.966Z,16.65
2023-05-09T07:33:28.177Z,16.85
2023-05-09T07:35:54.874Z,16.71
2023-05-09T07:38:21.389Z,16.82
2023-05-09T07:40:47.934Z,16.79
2023-05-09T07:43:14.445Z,16.71
2023-05-09T07:45:40.989Z,16.74
2023-05-09T07:48:07.788Z,16.99
2023-05-09T07:50:37.398Z,17.19
2023-05-09T07:53:06.927Z,17.34
2023-05-09T07:55:36.834Z,17.64
2023-05-09T07:58:04.720Z,17.70
2023-05-09T08:00:31.258Z,17.58
2023-05-09T08:02:57.853Z,17.62
2023-05-09T08:05:24.490Z,17.71
2023-05-09T08:07:50.999Z,17.58
2023-05-09T08:10:17.627Z,17.56
2023-05-09T08:12:44.213Z,17.49
2023-05-09T08:15:13.465Z,17.46
2023-05-09T08:17:40.256Z,17.70
2023-05-09T08:20:08.349Z,17.68
2023-05-09T08:22:39.722Z,17.73
2023-05-09T08:25:10.399Z,17.46
2023-05-09T08:27:36.904Z,17.38
2023-05-09T08:30:06.948Z,17.30
2023-05-09T08:32:34.976Z,17.14
2023-05-09T08:35:01.791Z,17.25
2023-05-09T08:37:28.939Z,17.30
2023-05-09T08:39:55.489Z,17.25
2023-05-09T08:42:26.129Z,17.08
2023-05-09T08:44:53.111Z,17.03
2023-05-09T08:47:21.204Z,17.33
2023-05-09T08:49:49.475Z,17.31
2023-05-09T08:52:22.397Z,17.06
2023-05-09T08:54:49.031Z,17.31
2023-05-09T08:57:15.808Z,17.54
2023-05-09T08:59:42.552Z,17.40
2023-05-09T09:02:14.639Z,17.30
2023-05-09T09:04:41.732Z,17.43
2023-05-09T09:07:09.872Z,17.48
2023-05-09T09:09:44.312Z,17.28
2023-05-09T09:12:12.324Z,17.53
2023-05-09T09:14:45.498Z,17.54
2023-05-09T09:17:18.682Z,17.42
2023-05-09T09:19:52.662Z,17.42
2023-05-09T09:22:22.772Z,17.66
2023-05-09T09:24:50.521Z,17.37
2023-05-09T09:27:17.152Z,17.49
2023-05-09T09:29:44.616Z,17.39
2023-05-09T09:32:15.650Z,17.41
2023-05-09T09:34:42.262Z,17.80
2023-05-09T09:37:08.928Z,17.78
2023-05-09T09:39:38.686Z,17.79
2023-05-09T09:42:12.138Z,18.02
2023-05-09T09:44:38.742Z,17.95
2023-05-09T09:47:10.097Z,17.98
2023-05-09T09:49:36.663Z,17.66
2023-05-09T09:52:05.217Z,17.94
2023-05-09T09:54:41.457Z,17.98
2023-05-09T09:57:09.358Z,18.11
2023-05-09T09:59:36.377Z,17.94
2023-05-09T10:02:08.356Z,17.92
2023-05-09T10:04:41.640Z,17.73
2023-05-09T10:07:13.525Z,17.61
2023-05-09T10:09:42.556Z,17.56
2023-05-09T10:12:09.477Z,17.32
2023-05-09T10:14:38.436Z,17.21
2023-05-09T10:17:05.994Z,17.18
2023-05-09T10:19:35.381Z,17.08
2023-05-09T10:22:11.098Z,17.30
2023-05-09T10:24:48.158Z,17.21
2023-05-09T10:27:19.708Z,17.25
2023-05-09T10:30:11.594Z,17.26
2023-05-09T10:32:56.905Z,17.47
2023-05-09T10:35:30.259Z,17.30
2023-05-09T10:37:58.023Z,17.08
2023-05-09T10:40:32.173Z,17.05
2023-05-09T10:42:59.289Z,17.02
2023-05-09T10:45:26.489Z,17.39
2023-05-09T10:47:56.663Z,17.30
2023-05-09T10:50:24.147Z,17.09
2023-05-09T10:53:39.312Z,16.80
2023-05-09T10:56:09.555Z,16.63
2023-05-09T10:58:40.748Z,16.16
2023-05-09T11:01:10.863Z,15.82
2023-05-09T11:03:55.505Z,15.71
2023-05-09T11:06:55.070Z,16.13
2023-05-09T11:09:29.618Z,15.90
2023-05-09T11:12:04.284Z,15.93
2023-05-09T11:17:41.049Z,16.01
2023-05-09T11:20:10.944Z,16.08
2023-05-09T11:22:49.817Z,15.92
2023-05-09T11:32:22.789Z,16.39
2023-05-09T11:35:12.214Z,16.54
2023-05-09T11:38:14.992Z,16.69
2023-05-09T11:43:36.914Z,16.48
2023-05-09T11:52:04.044Z,16.89
2023-05-09T11:54:58.341Z,16.66
2023-05-09T12:08:13.923Z,16.78
2023-05-09T12:10:49.028Z,16.77
2023-05-09T12:13:21.413Z,16.48
2023-05-09T12:19:38.440Z,16.49
2023-05-09T12:25:30.709Z,16.16
2023-05-09T12:28:49.941Z,16.32
2023-05-09T12:31:54.264Z,16.33
2023-05-09T12:34:28.036Z,16.14
2023-05-09T12:37:01.743Z,16.02
2023-05-09T12:39:45.609Z,15.97
2023-05-09T12:42:34.579Z,16.01
2023-05-09T12:45:08.210Z,16.28
2023-05-09T12:47:35.039Z,15.95
2023-05-09T12:50:08.562Z,16.31
2023-05-09T12:53:02.517Z,16.05
2023-05-09T13:05:13.673Z,15.99
2023-05-09T13:08:34.039Z,16.15
2023-05-09T13:31:01.414Z,16.02
2023-05-09T13:33:28.166Z,16.12
2023-05-09T13:35:56.977Z,16.21
2023-05-09T13:38:23.774Z,16.08
2023-05-09T13:40:50.590Z,16.25
2023-05-09T13:43:17.332Z,16.10
2023-05-09T13:45:49.304Z,16.19
2023-05-09T13:48:16.071Z,16.14
2023-05-09T13:50:48.263Z,16.38
2023-05-09T13:53:14.893Z,16.41
2023-05-09T13:55:45.655Z,16.33
2023-05-09T13:58:15.596Z,16.41
2023-05-09T14:00:45.561Z,16.45
2023-05-09T14:03:15.190Z,16.50
2023-05-09T14:05:44.599Z,16.34
2023-05-09T14:08:14.160Z,16.50
2023-05-09T14:10:44.664Z,16.53
2023-05-09T14:13:15.599Z,16.20
2023-05-09T14:15:42.834Z,16.31
2023-05-09T14:18:19.987Z,16.10
2023-05-09T14:20:47.795Z,16.18
2023-05-09T14:23:14.837Z,16.20
2023-05-09T14:25:42.472Z,15.85
2023-05-09T14:28:11.633Z,15.52
2023-05-09T14:30:38.831Z,15.54
2023-05-09T14:33:05.719Z,15.44
2023-05-09T14:35:34.506Z,15.36
2023-05-09T14:38:01.671Z,15.25
2023-05-09T14:40:34.908Z,15.19
2023-05-09T14:43:04.804Z,14.99
2023-05-09T14:45:33.079Z,15.02
2023-05-09T14:48:00.575Z,15.23
2023-05-09T14:50:27.251Z,15.24
2023-05-09T14:52:53.823Z,15.20
2023-05-09T14:55:23.043Z,15.36
2023-05-09T14:57:49.998Z,15.44
2023-05-09T15:00:21.922Z,15.78
2023-05-09T15:02:49.637Z,16.14
2023-05-09T15:05:16.767Z,16.65
2023-05-09T15:07:43.412Z,17.07
2023-05-09T15:10:12.759Z,16.94
2023-05-09T15:12:43.806Z,16.86
2023-05-09T15:15:18.038Z,16.89
2023-05-09T15:17:45.330Z,16.71
2023-05-09T15:20:15.736Z,16.38
2023-05-09T15:22:47.245Z,16.59
2023-05-09T15:25:13.898Z,16.61
2023-05-09T15:27:46.598Z,16.52
2023-05-09T15:30:14.195Z,16.34
2023-05-09T15:32:45.410Z,16.48
2023-05-09T15:35:15.852Z,16.53
2023-05-09T15:37:45.564Z,16.95
2023-05-09T15:40:15.379Z,17.18
2023-05-09T15:42:48.191Z,17.38
2023-05-09T15:45:15.745Z,17.33
2023-05-09T15:47:42.840Z,17.08
2023-05-09T15:50:12.602Z,17.11
2023-05-09T15:52:43.758Z,16.95
2023-05-09T15:55:13.685Z,16.88
2023-05-09T15:57:40.337Z,16.61
2023-05-09T16:00:07.286Z,16.47
2023-05-09T16:02:34.052Z,16.62
2023-05-09T16:05:00.630Z,16.36
2023-05-09T16:07:27.235Z,16.52
2023-05-09T16:09:53.771Z,16.08
2023-05-09T16:12:20.281Z,16.19
2023-05-09T16:14:46.778Z,16.09
2023-05-09T16:17:13.368Z,15.88
2023-05-09T16:19:41.442Z,15.84
2023-05-09T16:22:33.170Z,15.80
2023-05-09T16:24:59.820Z,15.78
2023-05-09T16:27:37.345Z,16.17
2023-05-09T16:30:06.417Z,16.62
2023-05-09T16:32:33.001Z,16.69
2023-05-09T16:34:59.611Z,16.63
2023-05-09T16:37:28.790Z,16.48
2023-05-09T16:39:56.548Z,16.96
2023-05-09T16:42:23.245Z,17.28
2023-05-09T16:44:49.849Z,17.64
2023-05-09T16:47:16.407Z,17.59
2023-05-09T16:49:46.045Z,17.55
2023-05-09T16:52:13.725Z,17.53
2023-05-09T16:54:40.402Z,17.37
2023-05-09T16:57:08.542Z,17.42
2023-05-09T16:59:35.114Z,17.23
2023-05-09T17:02:02.216Z,17.45
2023-05-09T17:04:29.487Z,17.52
2023-05-09T17:06:56.077Z,17.62
2023-05-09T17:09:22.766Z,17.90
2023-05-09T17:11:49.377Z,18.05
2023-05-09T17:14:16.348Z,18.01
2023-05-09T17:16:44.496Z,17.98
2023-05-09T17:19:17.044Z,17.21
2023-05-09T17:21:46.816Z,17.00
2023-05-09T17:24:17.628Z,17.02
2023-05-09T17:26:44.978Z,17.03
2023-05-09T17:29:13.651Z,16.87
2023-05-09T17:31:44.201Z,16.58
2023-05-09T17:34:14.088Z,16.17
2023-05-09T17:36:40.642Z,16.15
2023-05-09T17:39:07.250Z,16.30
2023-05-09T17:41:36.557Z,16.04
2023-05-09T17:44:04.021Z,15.96
2023-05-09T17:46:35.973Z,16.02
2023-05-09T17:49:02.762Z,15.93
2023-05-09T17:51:29.643Z,15.89
2023-05-09T17:53:56.285Z,15.98
2023-05-09T17:56:33.212Z,16.06
2023-05-09T17:59:00.300Z,16.17
2023-05-09T18:01:31.332Z,16.19
2023-05-09T18:03:58.157Z,16.08
2023-05-09T18:06:29.414Z,16.01
2023-05-09T18:09:07.404Z,16.16
2023-05-09T18:11:35.366Z,16.25
2023-05-09T18:14:03.208Z,16.03
2023-05-09T18:16:29.982Z,16.15
2023-05-09T18:18:56.671Z,15.99
2023-05-09T18:21:51.989Z,15.63
2023-05-09T18:24:21.673Z,15.62
2023-05-09T18:26:49.107Z,15.73
2023-05-09T18:29:17.146Z,15.80
2023-05-09T18:31:46.776Z,15.79
2023-05-09T18:34:25.068Z,15.41
2023-05-09T18:36:52.532Z,15.64
2023-05-09T18:39:19.527Z,15.36
2023-05-09T18:42:06.946Z,15.28
2023-05-09T18:44:33.573Z,15.30
2023-05-09T18:47:00.172Z,15.34
2023-05-09T18:49:26.867Z,15.36
2023-05-09T18:51:53.756Z,15.16
2023-05-09T18:54:20.745Z,15.26
2023-05-09T18:56:47.568Z,15.20
2023-05-09T18:59:16.320Z,15.22
2023-05-09T19:01:46.212Z,15.33
2023-05-09T19:04:31.949Z,15.23
2023-05-09T19:07:00.736Z,15.25
2023-05-09T19:09:31.065Z,15.52
2023-05-09T19:12:04.621Z,15.43
2023-05-09T19:14:31.400Z,15.67
2023-05-09T19:17:00.165Z,15.63
2023-05-09T19:19:27.546Z,15.60
2023-05-09T19:21:56.272Z,15.59
2023-05-09T19:24:25.245Z,15.54
2023-05-09T19:26:53.265Z,15.47
2023-05-09T19:29:20.272Z,15.48
2023-05-09T19:31:48.406Z,15.52
2023-05-09T19:34:22.782Z,15.64
2023-05-09T19:36:51.822Z,15.57
2023-05-09T19:39:19.640Z,15.26
2023-05-09T19:41:49.138Z,15.24
2023-05-09T19:44:20.564Z,15.34
2023-05-09T19:46:49.346Z,15.41
2023-05-09T19:49:20.176Z,15.18
2023-05-09T19:51:53.191Z,15.21
2023-05-09T19:54:20.317Z,15.11
2023-05-09T19:56:52.982Z,15.11
2023-05-09T19:59:34.731Z,14.81
2023-05-09T20:02:21.741Z,14.46
2023-05-09T20:04:54.525Z,14.09
2023-05-09T20:15:49.192Z,13.61
2023-05-09T20:18:19.371Z,13.45
2023-05-09T20:35:20.047Z,13.23
2023-05-09T20:37:52.041Z,13.01
2023-05-09T20:40:21.227Z,12.96
2023-05-09T20:42:49.301Z,13.20
2023-05-09T20:45:22.212Z,13.14
2023-05-09T20:47:51.152Z,13.12
2023-05-09T20:50:18.389Z,13.03
2023-05-09T20:52:48.936Z,13.02
2023-05-09T20:55:19.935Z,12.86
2023-05-09T20:57:49.963Z,12.68
2023-05-09T21:00:18.480Z,13.05
2023-05-09T21:02:47.938Z,12.93
2023-05-09T21:05:14.551Z,12.96
2023-05-09T21:07:41.128Z,12.92
2023-05-09T21:10:10.339Z,13.06
2023-05-09T21:12:39.462Z,12.99
2023-05-09T21:20:15.663Z,11.85
2023-05-09T21:22:42.429Z,11.98
2023-05-09T21:25:09.504Z,11.77
2023-05-09T21:27:36.164Z,11.77
2023-05-09T21:30:02.859Z,11.62
2023-05-09T21:32:30.518Z,12.01
2023-05-09T21:34:57.787Z,11.99
2023-05-09T21:37:27.309Z,12.19
2023-05-09T22:01:29.418Z,12.55
2023-05-09T22:03:56.327Z,12.62
2023-05-09T22:06:22.930Z,12.64
2023-05-09T22:08:51.181Z,12.65
2023-05-09T22:11:18.087Z,12.62
2023-05-09T22:13:44.587Z,12.87
2023-05-09T22:16:11.082Z,12.48
2023-05-09T22:18:37.557Z,12.43
2023-05-09T22:21:08.900Z,12.46
2023-05-09T22:23:35.628Z,12.12
2023-05-09T22:26:02.168Z,12.37
2023-05-09T22:28:37.714Z,12.21
2023-05-09T22:31:07.696Z,12.08
2023-05-09T22:33:34.469Z,12.30
2023-05-09T22:36:01.152Z,12.39
2023-05-09T22:38:27.703Z,12.46
2023-05-09T22:40:54.158Z,12.35
2023-05-09T22:43:24.187Z,12.30
2023-05-09T22:45:54.749Z,12.35
2023-05-09T22:48:24.978Z,12.19
2023-05-09T22:51:01.432Z,12.52
2023-05-09T22:53:28.654Z,12.43
2023-05-09T22:55:55.841Z,12.48
2023-05-09T22:58:26.548Z,12.26
2023-05-09T23:00:56.565Z,12.53
2023-05-09T23:03:26.295Z,12.48
2023-05-09T23:05:54.375Z,12.40
2023-05-09T23:08:23.320Z,12.44
2023-05-09T23:10:49.885Z,12.49
2023-05-09T23:13:16.441Z,12.15
2023-05-09T23:15:43.021Z,12.24
2023-05-09T23:18:09.651Z,12.19
2023-05-09T23:20:36.987Z,12.22
2023-05-09T23:23:03.696Z,11.91
2023-05-09T23:25:30.307Z,11.92
2023-05-09T23:27:56.804Z,11.86
2023-05-09T23:30:26.381Z,11.80
2023-05-09T23:32:54.966Z,11.74
2023-05-09T23:35:22.261Z,11.92
2023-05-09T23:37:48.764Z,11.95
2023-05-09T23:40:15.581Z,11.95
2023-05-09T23:42:42.378Z,12.10
2023-05-09T23:45:10.095Z,11.99
2023-05-09T23:47:36.631Z,11.89
2023-05-09T23:50:03.298Z,11.96
2023-05-09T23:52:29.800Z,11.78
2023-05-09T23:54:59.220Z,12.01
2023-05-09T23:57:28.763Z,11.85
2023-05-09T23:59:56.411Z,11.72
